createdAt,value
2023-05-13T00:01:55.611Z,36.57
2023-05-13T00:04:26.120Z,36.68
2023-05-13T00:06:56.605Z,36.73
2023-05-13T00:09:27.724Z,36.85
2023-05-13T00:11:58.245Z,36.88
2023-05-13T00:14:28.678Z,36.75
2023-05-13T00:16:59.606Z,36.74
2023-05-13T00:19:30.127Z,36.78
2023-05-13T00:22:00.715Z,36.78
2023-05-13T00:24:31.167Z,36.89
2023-05-13T00:27:01.612Z,36.81
2023-05-13T00:29:32.550Z,36.95
2023-05-13T00:32:03.480Z,36.96
2023-05-13T00:34:34.024Z,36.87
2023-05-13T00:37:05.067Z,36.88
2023-05-13T00:39:35.674Z,36.83
2023-05-13T00:42:06.595Z,36.83
2023-05-13T00:44:37.382Z,36.71
2023-05-13T00:47:08.731Z,36.87
2023-05-13T00:49:39.460Z,36.85
2023-05-13T00:52:10.129Z,36.98
2023-05-13T00:54:42.162Z,37.13
2023-05-13T00:57:12.655Z,37.22
2023-05-13T00:59:43.136Z,37.20
2023-05-13T01:02:20.923Z,37.27
2023-05-13T01:05:01.079Z,37.26
2023-05-13T01:07:43.481Z,37.25
2023-05-13T01:10:22.398Z,37.34
2023-05-13T01:12:59.192Z,37.34
2023-05-13T01:15:31.047Z,37.44
2023-05-13T01:18:02.325Z,37.62
2023-05-13T01:20:34.702Z,37.80
2023-05-13T01:23:06.308Z,37.96
2023-05-13T01:25:37.870Z,38.09
2023-05-13T01:28:09.329Z,38.11
2023-05-13T01:30:40.489Z,38.33
2023-05-13T01:33:11.781Z,38.39
2023-05-13T01:35:42.762Z,38.51
2023-05-13T01:38:15.926Z,38.54
2023-05-13T01:40:49.636Z,38.67
2023-05-13T01:43:20.140Z,38.53
2023-05-13T01:45:51.626Z,38.56
2023-05-13T01:48:22.681Z,38.79
2023-05-13T01:50:53.722Z,38.81
2023-05-13T01:53:24.444Z,38.90
2023-05-13T01:55:56.201Z,39.02
2023-05-13T01:58:26.608Z,39.26
2023-05-13T02:00:58.072Z,39.30
2023-05-13T02:03:28.689Z,39.48
2023-05-13T02:05:59.312Z,39.25
2023-05-13T02:08:29.809Z,39.38
2023-05-13T02:11:01.134Z,39.51
2023-05-13T02:13:32.420Z,39.85
2023-05-13T02:16:03.470Z,39.77
2023-05-13T02:18:34.076Z,39.66
2023-05-13T02:21:04.747Z,39.78
2023-05-13T02:23:35.325Z,39.82
2023-05-13T02:26:05.846Z,40.09
2023-05-13T02:28:36.685Z,40.30
2023-05-13T02:31:07.706Z,40.05
2023-05-13T02:33:38.256Z,40.11
2023-05-13T02:36:09.391Z,40.01
2023-05-13T02:38:40.103Z,39.96
2023-05-13T02:41:10.881Z,40.18
2023-05-13T02:43:41.429Z,40.02
2023-05-13T02:46:12.062Z,40.08
2023-05-13T02:48:42.682Z,40.10
2023-05-13T02:51:13.149Z,40.12
2023-05-13T02:53:44.037Z,40.05
2023-05-13T02:56:17.069Z,39.93
2023-05-13T02:58:47.573Z,39.87
2023-05-13T03:01:18.311Z,39.96
2023-05-13T03:03:48.961Z,40.00
2023-05-13T03:06:19.536Z,40.04
2023-05-13T03:08:50.356Z,40.24
2023-05-13T03:11:21.447Z,40.16
2023-05-13T03:13:51.897Z,40.17
2023-05-13T03:16:22.418Z,40.33
2023-05-13T03:18:53.076Z,40.31
2023-05-13T03:21:23.729Z,40.58
2023-05-13T03:23:54.514Z,40.33
2023-05-13T03:26:25.118Z,40.23
2023-05-13T03:28:55.614Z,40.44
2023-05-13T03:31:27.159Z,40.53
2023-05-13T03:33:58.036Z,40.79
2023-05-13T03:36:29.078Z,40.81
2023-05-13T03:38:59.649Z,40.92
2023-05-13T03:41:30.197Z,40.87
2023-05-13T03:44:01.621Z,41.13
2023-05-13T03:46:32.273Z,41.07
2023-05-13T03:49:03.242Z,41.14
2023-05-13T03:51:34.392Z,41.11
2023-05-13T03:54:05.857Z,41.26
2023-05-13T03:56:36.390Z,41.29
2023-05-13T03:59:06.937Z,41.49
2023-05-13T04:01:41.050Z,41.59
2023-05-13T04:04:12.798Z,41.83
2023-05-13T04:06:43.249Z,41.89
2023-05-13T04:09:13.710Z,41.98
2023-05-13T04:11:46.058Z,41.65
2023-05-13T04:14:16.571Z,41.72
2023-05-13T04:16:47.195Z,41.72
2023-05-13T04:19:18.294Z,41.75
2023-05-13T04:21:48.793Z,41.96
2023-05-13T04:24:19.358Z,42.11
2023-05-13T04:26:53.054Z,42.25
2023-05-13T04:29:23.765Z,42.41
2023-05-13T04:31:54.377Z,42.16
2023-05-13T04:34:25.093Z,42.31
2023-05-13T04:36:56.239Z,42.38
2023-05-13T04:39:26.705Z,42.45
2023-05-13T04:41:57.148Z,42.52
2023-05-13T04:44:27.885Z,42.47
2023-05-13T04:46:58.337Z,42.33
2023-05-13T04:49:28.847Z,42.43
2023-05-13T04:52:02.265Z,42.38
2023-05-13T04:54:35.481Z,42.42
2023-05-13T04:57:06.717Z,42.49
2023-05-13T04:59:37.313Z,42.44
2023-05-13T05:02:08.138Z,42.52
2023-05-13T05:04:39.054Z,42.52
2023-05-13T05:07:15.097Z,42.66
2023-05-13T05:09:45.822Z,42.82
2023-05-13T05:12:16.495Z,42.91
2023-05-13T05:14:47.083Z,42.89
2023-05-13T05:17:19.058Z,42.98
2023-05-13T05:19:49.821Z,42.98
2023-05-13T05:22:20.376Z,43.19
2023-05-13T05:24:50.838Z,43.21
2023-05-13T05:27:21.308Z,43.17
2023-05-13T05:29:51.755Z,43.45
2023-05-13T05:32:23.377Z,43.38
2023-05-13T05:34:54.060Z,43.44
2023-05-13T05:37:24.582Z,43.67
2023-05-13T05:39:55.255Z,43.77
2023-05-13T05:42:25.750Z,43.95
2023-05-13T05:44:56.362Z,44.10
2023-05-13T05:47:27.342Z,44.20
2023-05-13T05:49:57.978Z,44.11
2023-05-13T05:52:28.714Z,44.04
2023-05-13T05:54:59.452Z,44.19
2023-05-13T05:57:30.398Z,44.23
2023-05-13T06:00:01.125Z,44.07
2023-05-13T06:02:32.105Z,43.78
2023-05-13T06:05:03.083Z,43.75
2023-05-13T06:07:33.568Z,43.67
2023-05-13T06:10:05.026Z,43.87
2023-05-13T06:12:36.950Z,44.10
2023-05-13T06:15:10.681Z,44.05
2023-05-13T06:17:41.588Z,43.86
2023-05-13T06:20:13.921Z,43.61
2023-05-13T06:22:44.381Z,43.57
2023-05-13T06:25:15.128Z,43.53
2023-05-13T06:27:45.670Z,43.65
2023-05-13T06:30:16.864Z,44.62
2023-05-13T06:33:00.149Z,45.05
2023-05-13T06:35:34.107Z,45.03
2023-05-13T06:38:08.155Z,45.24
2023-05-13T06:40:39.168Z,45.13
2023-05-13T06:43:09.997Z,46.10
2023-05-13T06:45:41.687Z,46.78
2023-05-13T06:48:12.283Z,47.17
2023-05-13T06:50:42.859Z,47.78
2023-05-13T06:53:13.420Z,50.16
2023-05-13T06:55:43.910Z,50.85
2023-05-13T06:58:14.542Z,52.19
2023-05-13T07:00:46.960Z,51.59
2023-05-13T07:03:17.846Z,51.51
2023-05-13T07:05:48.416Z,52.37
2023-05-13T07:08:18.965Z,53.20
2023-05-13T07:10:49.438Z,53.49
2023-05-13T07:13:20.702Z,53.28
2023-05-13T07:15:51.337Z,51.75
2023-05-13T07:18:22.002Z,52.07
2023-05-13T07:20:52.643Z,52.33
2023-05-13T07:23:23.175Z,51.90
2023-05-13T07:25:53.885Z,53.09
2023-05-13T07:28:24.308Z,52.92
2023-05-13T07:30:54.971Z,53.68
2023-05-13T07:33:25.489Z,54.62
2023-05-13T07:35:56.484Z,55.05
2023-05-13T07:38:27.212Z,54.90
2023-05-13T07:40:57.685Z,53.92
2023-05-13T07:43:28.210Z,53.74
2023-05-13T07:45:58.696Z,53.69
2023-05-13T07:48:29.341Z,54.44
2023-05-13T07:50:59.873Z,55.09
2023-05-13T07:53:30.436Z,53.91
2023-05-13T07:56:00.990Z,54.08
2023-05-13T07:58:31.442Z,53.91
2023-05-13T08:01:01.886Z,54.51
2023-05-13T08:03:33.354Z,53.52
2023-05-13T08:06:04.008Z,53.65
2023-05-13T08:08:34.627Z,53.70
2023-05-13T08:11:05.105Z,54.61
2023-05-13T08:13:35.861Z,55.20
2023-05-13T08:16:07.982Z,55.37
2023-05-13T08:18:38.601Z,55.42
2023-05-13T08:21:09.061Z,55.49
2023-05-13T08:23:44.862Z,54.94
2023-05-13T08:26:17.019Z,55.42
2023-05-13T08:31:18.289Z,55.35
2023-05-13T08:33:48.924Z,55.65
2023-05-13T08:36:19.542Z,54.81
2023-05-13T08:38:50.069Z,55.50
2023-05-13T08:41:22.110Z,54.86
2023-05-13T08:43:55.490Z,54.79
2023-05-13T08:46:28.086Z,55.39
2023-05-13T08:49:00.074Z,55.58
2023-05-13T08:51:30.703Z,54.69
2023-05-13T08:54:02.515Z,54.92
2023-05-13T08:56:31.578Z,54.68
2023-05-13T08:59:02.098Z,55.55
2023-05-13T09:01:32.932Z,55.54
2023-05-13T09:04:07.312Z,55.21
2023-05-13T09:06:37.757Z,54.46
2023-05-13T09:09:09.777Z,54.75
2023-05-13T09:11:42.639Z,53.69
2023-05-13T09:14:14.583Z,52.02
2023-05-13T09:16:45.226Z,52.47
2023-05-13T09:19:15.886Z,52.97
2023-05-13T09:21:46.515Z,52.39
2023-05-13T09:24:21.386Z,51.58
2023-05-13T09:26:53.185Z,50.83
2023-05-13T09:29:29.343Z,51.05
2023-05-13T09:32:01.331Z,50.84
2023-05-13T09:34:31.419Z,51.18
2023-05-13T09:37:04.521Z,49.88
2023-05-13T09:39:39.901Z,49.58
2023-05-13T09:42:17.617Z,49.54
2023-05-13T09:44:49.103Z,50.40
2023-05-13T09:47:20.011Z,49.60
2023-05-13T09:49:58.581Z,48.99
2023-05-13T09:52:30.210Z,49.60
2023-05-13T09:55:01.187Z,49.73
2023-05-13T09:57:32.192Z,49.51
2023-05-13T10:00:05.479Z,48.05
2023-05-13T10:02:42.605Z,47.59
2023-05-13T10:05:14.235Z,47.81
2023-05-13T10:07:44.733Z,47.27
2023-05-13T10:10:15.818Z,46.64
2023-05-13T10:12:47.403Z,46.33
2023-05-13T10:15:18.718Z,47.05
2023-05-13T10:17:49.628Z,45.74
2023-05-13T10:20:20.862Z,45.45
2023-05-13T10:22:53.099Z,44.95
2023-05-13T10:25:24.258Z,44.73
2023-05-13T10:27:57.206Z,45.10
2023-05-13T10:30:31.763Z,44.45
2023-05-13T10:33:02.711Z,44.97
2023-05-13T10:35:39.334Z,44.29
2023-05-13T10:38:17.640Z,43.79
2023-05-13T10:41:11.713Z,42.77
2023-05-13T10:43:42.780Z,42.03
2023-05-13T10:46:15.345Z,42.60
2023-05-13T10:48:51.947Z,42.95
2023-05-13T10:51:26.008Z,43.39
2023-05-13T10:53:59.148Z,43.34
2023-05-13T10:56:30.891Z,43.38
2023-05-13T10:59:01.417Z,43.77
2023-05-13T11:01:35.542Z,44.41
2023-05-13T11:04:07.315Z,43.99
2023-05-13T11:06:36.960Z,44.21
2023-05-13T11:09:10.046Z,43.36
2023-05-13T11:11:41.213Z,42.55
2023-05-13T11:14:18.721Z,41.92
2023-05-13T11:16:55.015Z,42.01
2023-05-13T11:19:29.094Z,41.26
2023-05-13T11:22:10.295Z,41.09
2023-05-13T11:24:41.122Z,40.86
2023-05-13T11:27:21.790Z,40.80
2023-05-13T11:29:54.732Z,40.35
2023-05-13T11:32:56.146Z,40.31
2023-05-13T11:35:29.135Z,40.12
2023-05-13T11:38:00.749Z,40.15
2023-05-13T11:40:33.245Z,40.35
2023-05-13T11:43:05.634Z,39.40
2023-05-13T11:45:41.095Z,39.52
2023-05-13T11:48:23.367Z,38.94
2023-05-13T11:50:54.195Z,39.05
2023-05-13T11:53:24.941Z,39.30
2023-05-13T11:55:55.792Z,38.96
2023-05-13T11:58:26.291Z,38.95
2023-05-13T12:00:57.348Z,38.91
2023-05-13T12:03:31.235Z,38.81
2023-05-13T12:06:05.512Z,38.28
2023-05-13T12:08:36.014Z,38.66
2023-05-13T12:11:10.229Z,38.71
2023-05-13T12:13:42.282Z,38.87
2023-05-13T12:16:12.910Z,39.14
2023-05-13T12:18:43.486Z,38.36
2023-05-13T12:21:22.304Z,38.49
2023-05-13T12:23:52.763Z,37.91
2023-05-13T12:26:23.213Z,38.16
2023-05-13T12:28:59.916Z,38.21
2023-05-13T12:31:31.187Z,38.26
2023-05-13T12:34:02.770Z,37.79
2023-05-13T12:36:37.733Z,37.80
2023-05-13T12:39:10.224Z,38.00
2023-05-13T12:41:42.485Z,37.84
2023-05-13T12:44:15.409Z,37.67
2023-05-13T12:46:54.124Z,36.86
2023-05-13T12:49:25.122Z,36.89
2023-05-13T12:51:56.852Z,36.97
2023-05-13T12:54:27.361Z,36.87
2023-05-13T12:56:57.955Z,36.72
2023-05-13T12:59:29.463Z,36.68
2023-05-13T13:02:00.177Z,36.53
2023-05-13T13:04:30.966Z,35.99
2023-05-13T13:07:01.513Z,36.04
2023-05-13T13:09:31.963Z,36.24
2023-05-13T13:12:02.481Z,36.04
2023-05-13T13:14:33.125Z,35.95
2023-05-13T13:17:03.641Z,35.45
2023-05-13T13:19:34.236Z,35.80
2023-05-13T13:22:05.060Z,37.67
2023-05-13T13:24:35.929Z,37.63
2023-05-13T13:27:07.044Z,38.29
2023-05-13T13:29:38.613Z,38.44
2023-05-13T13:32:10.845Z,38.75
2023-05-13T13:34:41.427Z,38.36
2023-05-13T13:37:11.911Z,38.32
2023-05-13T13:39:42.489Z,38.47
2023-05-13T13:42:13.016Z,38.60
2023-05-13T13:44:43.467Z,38.79
2023-05-13T13:55:49.774Z,39.01
2023-05-13T13:58:20.266Z,38.90
2023-05-13T14:00:50.744Z,38.52
2023-05-13T14:03:21.347Z,38.34
2023-05-13T14:05:54.243Z,38.48
2023-05-13T14:08:24.773Z,38.87
2023-05-13T14:10:55.401Z,38.89
2023-05-13T14:13:25.991Z,38.44
2023-05-13T14:15:56.805Z,37.98
2023-05-13T14:18:27.475Z,38.13
2023-05-13T14:20:58.241Z,38.64
2023-05-13T14:23:28.748Z,38.35
2023-05-13T14:25:59.198Z,38.40
2023-05-13T14:28:29.748Z,37.76
2023-05-13T14:31:00.281Z,37.89
2023-05-13T14:33:31.821Z,38.11
2023-05-13T14:36:02.345Z,37.95
2023-05-13T14:38:32.849Z,38.08
2023-05-13T14:41:03.446Z,38.26
2023-05-13T14:43:33.971Z,38.49
2023-05-13T14:46:04.751Z,38.54
2023-05-13T14:48:35.401Z,38.27
2023-05-13T14:51:06.587Z,38.13
2023-05-13T14:53:37.179Z,37.70
2023-05-13T14:56:08.337Z,37.81
2023-05-13T14:58:39.063Z,36.82
2023-05-13T15:01:19.763Z,36.07
2023-05-13T15:04:41.348Z,36.10
2023-05-13T15:07:11.886Z,35.62
2023-05-13T15:09:42.405Z,36.49
2023-05-13T15:12:13.367Z,36.95
2023-05-13T15:14:43.833Z,36.66
2023-05-13T15:17:15.933Z,37.41
2023-05-13T15:19:48.134Z,36.89
2023-05-13T15:22:18.956Z,38.52
2023-05-13T15:24:49.367Z,38.27
2023-05-13T15:27:20.734Z,36.95
2023-05-13T15:29:51.173Z,36.90
2023-05-13T15:32:21.666Z,37.17
2023-05-13T15:34:52.196Z,36.44
2023-05-13T15:37:22.722Z,36.48
2023-05-13T15:39:53.166Z,36.39
2023-05-13T15:42:24.023Z,36.73
2023-05-13T15:44:54.500Z,36.87
2023-05-13T15:47:25.227Z,35.96
2023-05-13T15:49:55.914Z,35.59
2023-05-13T15:52:26.482Z,36.62
2023-05-13T15:54:56.961Z,36.88
2023-05-13T15:57:27.506Z,36.93
2023-05-13T15:59:58.019Z,37.40
2023-05-13T16:02:29.743Z,36.91
2023-05-13T16:05:00.286Z,37.04
2023-05-13T16:07:30.844Z,37.92
2023-05-13T16:10:01.473Z,37.92
2023-05-13T16:12:33.699Z,37.03
2023-05-13T16:15:04.585Z,37.78
2023-05-13T16:17:35.951Z,36.97
2023-05-13T16:20:10.851Z,36.72
2023-05-13T16:22:42.063Z,37.27
2023-05-13T16:25:13.589Z,36.35
2023-05-13T16:27:44.397Z,36.69
2023-05-13T16:30:15.700Z,37.56
2023-05-13T16:32:48.972Z,37.02
2023-05-13T16:35:19.987Z,37.15
2023-05-13T16:37:50.674Z,37.06
2023-05-13T16:40:22.462Z,37.82
2023-05-13T16:42:53.324Z,37.21
2023-05-13T16:45:24.089Z,36.77
2023-05-13T16:47:54.943Z,37.31
2023-05-13T16:50:26.288Z,36.94
2023-05-13T16:52:57.175Z,36.70
2023-05-13T16:55:27.908Z,36.42
2023-05-13T16:58:01.611Z,36.62
2023-05-13T17:00:33.119Z,36.65
2023-05-13T17:03:26.430Z,36.57
2023-05-13T17:05:57.044Z,36.45
2023-05-13T17:08:27.503Z,36.03
2023-05-13T17:10:58.031Z,36.38
2023-05-13T17:13:28.505Z,36.37
2023-05-13T17:15:58.987Z,35.82
2023-05-13T17:18:29.497Z,35.76
2023-05-13T17:21:03.818Z,35.95
2023-05-13T17:23:34.559Z,35.88
2023-05-13T17:26:05.093Z,35.30
2023-05-13T17:29:06.352Z,35.21
2023-05-13T17:31:36.966Z,35.19
2023-05-13T17:34:07.810Z,35.23
2023-05-13T17:36:38.347Z,34.67
2023-05-13T17:39:08.876Z,34.41
2023-05-13T17:41:39.378Z,34.28
2023-05-13T17:44:10.037Z,34.39
2023-05-13T17:46:40.510Z,34.37
2023-05-13T17:49:11.036Z,34.62
2023-05-13T17:51:43.061Z,34.59
2023-05-13T17:54:14.358Z,34.16
2023-05-13T17:56:44.907Z,34.27
2023-05-13T17:59:15.365Z,34.36
2023-05-13T18:01:45.893Z,34.22
2023-05-13T18:04:16.863Z,34.27
2023-05-13T18:06:47.563Z,34.28
2023-05-13T18:09:18.098Z,34.48
2023-05-13T18:11:48.960Z,34.51
2023-05-13T18:14:19.487Z,34.60
2023-05-13T18:16:50.176Z,34.67
2023-05-13T18:19:20.795Z,34.60
2023-05-13T18:21:51.323Z,34.65
2023-05-13T18:24:22.214Z,34.40
2023-05-13T18:26:52.683Z,34.60
2023-05-13T18:29:23.453Z,34.76
2023-05-13T18:31:54.138Z,34.71
2023-05-13T18:34:24.851Z,34.78
2023-05-13T18:36:55.856Z,34.87
2023-05-13T18:39:26.434Z,34.80
2023-05-13T18:41:56.912Z,34.80
2023-05-13T18:44:27.459Z,34.88
2023-05-13T18:46:57.991Z,35.01
2023-05-13T18:49:29.469Z,35.15
2023-05-13T18:52:00.383Z,35.02
2023-05-13T18:54:31.272Z,35.15
2023-05-13T18:57:01.847Z,35.24
2023-05-13T18:59:32.324Z,35.22
2023-05-13T19:02:03.374Z,35.18
2023-05-13T19:04:34.157Z,35.36
2023-05-13T19:07:04.886Z,35.43
2023-05-13T19:09:36.130Z,35.51
2023-05-13T19:12:07.643Z,35.50
2023-05-13T19:14:39.111Z,35.70
2023-05-13T19:17:09.734Z,35.78
2023-05-13T19:19:42.247Z,35.88
2023-05-13T19:22:12.877Z,36.27
2023-05-13T19:24:43.318Z,36.22
2023-05-13T19:27:13.868Z,36.14
2023-05-13T19:29:44.510Z,36.17
2023-05-13T19:32:14.936Z,36.39
2023-05-13T19:34:45.433Z,36.42
2023-05-13T19:37:15.949Z,36.43
2023-05-13T19:39:46.692Z,36.80
2023-05-13T19:42:17.358Z,36.70
2023-05-13T19:44:47.837Z,36.88
2023-05-13T19:47:18.332Z,37.28
2023-05-13T19:49:48.919Z,37.18
2023-05-13T19:52:19.546Z,37.25
2023-05-13T19:54:50.040Z,37.29
2023-05-13T19:57:21.313Z,37.45
2023-05-13T19:59:52.463Z,37.60
2023-05-13T20:02:23.010Z,37.53
2023-05-13T20:04:53.521Z,37.75
2023-05-13T20:07:24.039Z,37.60
2023-05-13T20:09:54.696Z,37.65
2023-05-13T20:12:25.526Z,37.90
2023-05-13T20:14:58.245Z,38.09
2023-05-13T20:17:30.235Z,38.02
2023-05-13T20:20:01.352Z,38.13
2023-05-13T20:22:32.604Z,38.28
2023-05-13T20:25:04.123Z,38.34
2023-05-13T20:27:34.960Z,38.30
2023-05-13T20:30:07.307Z,38.25
2023-05-13T20:32:37.833Z,38.50
2023-05-13T20:35:10.324Z,38.46
2023-05-13T20:37:40.960Z,38.48
2023-05-13T20:40:12.661Z,38.56
2023-05-13T20:42:43.109Z,38.59
2023-05-13T20:45:15.044Z,38.71
2023-05-13T20:47:45.530Z,39.11
2023-05-13T20:50:16.779Z,39.04
2023-05-13T20:52:47.322Z,39.07
2023-05-13T20:55:18.049Z,39.15
2023-05-13T20:57:48.788Z,38.80
2023-05-13T21:00:20.262Z,38.92
2023-05-13T21:02:52.088Z,38.85
2023-05-13T21:05:22.975Z,39.02
2023-05-13T21:07:54.085Z,39.13
2023-05-13T21:10:25.298Z,39.06
2023-05-13T21:12:56.063Z,38.91
2023-05-13T21:15:26.608Z,39.05
2023-05-13T21:17:57.336Z,38.96
2023-05-13T21:20:28.013Z,38.90
2023-05-13T21:22:58.487Z,38.85
2023-05-13T21:25:28.997Z,38.93
2023-05-13T21:27:59.447Z,39.24
2023-05-13T21:30:32.247Z,39.22
2023-05-13T21:33:03.063Z,39.32
2023-05-13T21:35:33.702Z,39.30
2023-05-13T21:38:11.858Z,39.35
2023-05-13T21:40:44.181Z,39.47
2023-05-13T21:43:14.665Z,39.40
2023-05-13T21:45:47.181Z,39.48
2023-05-13T21:48:17.791Z,39.46
2023-05-13T21:50:48.387Z,39.34
2023-05-13T21:53:18.975Z,39.21
2023-05-13T21:55:49.509Z,39.40
2023-05-13T21:58:21.892Z,39.34
2023-05-13T22:00:54.797Z,39.42
2023-05-13T22:03:25.565Z,39.42
2023-05-13T22:05:56.095Z,39.38
2023-05-13T22:08:26.546Z,39.44
2023-05-13T22:10:57.021Z,39.36
2023-05-13T22:13:27.514Z,39.28
2023-05-13T22:15:58.014Z,39.37
2023-05-13T22:18:28.792Z,39.34
2023-05-13T22:21:00.834Z,39.48
2023-05-13T22:23:29.830Z,39.50
2023-05-13T22:26:00.366Z,39.58
2023-05-13T22:28:31.316Z,39.73
2023-05-13T22:31:01.802Z,39.78
2023-05-13T22:33:32.294Z,39.77
2023-05-13T22:36:03.046Z,39.76
2023-05-13T22:38:33.503Z,39.75
2023-05-13T22:41:03.964Z,39.80
2023-05-13T22:43:34.652Z,39.85
2023-05-13T22:46:05.483Z,39.85
2023-05-13T22:48:35.987Z,40.04
2023-05-13T22:51:06.530Z,39.92
2023-05-13T22:53:37.005Z,40.00
2023-05-13T22:56:08.742Z,40.02
2023-05-13T22:58:37.680Z,40.19
2023-05-13T23:01:08.199Z,40.23
2023-05-13T23:03:38.812Z,40.34
2023-05-13T23:06:10.288Z,40.34
2023-05-13T23:08:40.830Z,40.50
2023-05-13T23:11:11.452Z,40.52
2023-05-13T23:13:41.957Z,40.57
2023-05-13T23:16:12.440Z,40.66
2023-05-13T23:18:42.934Z,40.72
2023-05-13T23:21:13.459Z,40.73
2023-05-13T23:23:43.991Z,40.75
2023-05-13T23:26:14.518Z,40.71
2023-05-13T23:28:45.052Z,40.87
2023-05-13T23:31:16.629Z,40.86
2023-05-13T23:33:47.110Z,40.87
2023-05-13T23:36:17.663Z,40.92
2023-05-13T23:38:48.191Z,41.04
2023-05-13T23:41:18.926Z,41.05
2023-05-13T23:43:49.400Z,41.12
2023-05-13T23:46:19.932Z,41.15
2023-05-13T23:48:50.449Z,41.21
2023-05-13T23:51:21.150Z,41.10
2023-05-13T23:53:51.989Z,41.18
2023-05-13T23:56:22.587Z,41.14
2023-05-13T23:58:53.355Z,41.21
